createdAt,value
2023-04-10T00:00:19.610Z,0.00
2023-04-10T00:01:19.590Z,0.00
2023-04-10T00:02:19.698Z,0.00
2023-04-10T00:03:19.648Z,0.00
2023-04-10T00:04:19.657Z,0.00
2023-04-10T00:05:19.518Z,0.00
2023-04-10T00:06:19.504Z,0.00
2023-04-10T00:07:19.483Z,0.00
2023-04-10T00:08:19.516Z,0.00
2023-04-10T00:09:19.446Z,0.00
2023-04-10T00:10:19.451Z,0.00
2023-04-10T00:11:19.415Z,0.00
2023-04-10T00:12:19.397Z,0.00
2023-04-10T00:13:19.381Z,0.00
2023-04-10T00:14:19.359Z,0.00
2023-04-10T00:15:19.351Z,0.00
2023-04-10T00:16:19.370Z,0.00
2023-04-10T00:17:19.393Z,0.00
2023-04-10T00:18:19.384Z,0.00
2023-04-10T00:19:19.272Z,0.00
2023-04-10T00:20:19.253Z,0.00
2023-04-10T00:21:19.247Z,0.00
2023-04-10T00:22:19.217Z,0.00
2023-04-10T00:23:19.223Z,0.00
2023-04-10T00:24:19.190Z,0.00
2023-04-10T00:25:19.191Z,0.00
2023-04-10T00:26:19.156Z,0.00
2023-04-10T00:27:19.145Z,0.00
2023-04-10T00:28:19.118Z,0.00
2023-04-10T00:29:19.096Z,0.00
2023-04-10T00:30:19.085Z,0.00
2023-04-10T00:31:19.066Z,0.00
2023-04-10T00:32:19.133Z,0.00
2023-04-10T00:33:19.028Z,0.00
2023-04-10T00:34:19.014Z,0.00
2023-04-10T00:35:19.005Z,0.00
2023-04-10T00:36:19.035Z,0.00
2023-04-10T00:37:18.986Z,0.00
2023-04-10T00:38:18.961Z,0.00
2023-04-10T00:39:18.922Z,0.00
2023-04-10T00:40:18.908Z,0.00
2023-04-10T00:41:18.901Z,0.00
2023-04-10T00:42:18.874Z,0.00
2023-04-10T00:43:18.852Z,0.00
2023-04-10T00:44:18.831Z,0.00
2023-04-10T00:45:18.814Z,0.00
2023-04-10T00:46:18.811Z,0.00
2023-04-10T00:47:18.815Z,0.00
2023-04-10T00:48:18.766Z,0.00
2023-04-10T00:49:18.745Z,0.00
2023-04-10T00:50:18.725Z,0.00
2023-04-10T00:51:19.186Z,0.00
2023-04-10T00:52:19.477Z,0.00
2023-04-10T00:53:18.674Z,0.00
2023-04-10T00:54:18.655Z,0.00
2023-04-10T00:55:18.640Z,0.00
2023-04-10T00:56:18.620Z,0.00
2023-04-10T00:57:18.607Z,0.00
2023-04-10T00:58:18.585Z,0.00
2023-04-10T00:59:18.568Z,0.00
2023-04-10T01:00:18.557Z,0.00
2023-04-10T01:01:18.572Z,0.00
2023-04-10T01:02:18.677Z,0.00
2023-04-10T01:03:18.639Z,0.00
2023-04-10T01:04:18.600Z,0.00
2023-04-10T01:05:18.480Z,0.00
2023-04-10T01:06:18.455Z,0.00
2023-04-10T01:07:18.429Z,0.00
2023-04-10T01:08:18.406Z,0.00
2023-04-10T01:09:18.399Z,0.00
2023-04-10T01:10:18.369Z,0.00
2023-04-10T01:11:18.365Z,0.00
2023-04-10T01:12:18.335Z,0.00
2023-04-10T01:13:18.314Z,0.00
2023-04-10T01:14:18.306Z,0.00
2023-04-10T01:15:18.285Z,0.00
2023-04-10T01:16:18.283Z,0.00
2023-04-10T01:17:18.249Z,0.00
2023-04-10T01:18:18.225Z,0.00
2023-04-10T01:19:18.219Z,0.00
2023-04-10T01:20:18.192Z,0.00
2023-04-10T01:21:18.184Z,0.00
2023-04-10T01:22:18.150Z,0.00
2023-04-10T01:23:18.138Z,0.00
2023-04-10T01:24:18.129Z,0.00
2023-04-10T01:25:18.101Z,0.00
2023-04-10T01:26:18.083Z,0.00
2023-04-10T01:27:18.075Z,0.00
2023-04-10T01:28:18.046Z,0.00
2023-04-10T01:29:18.055Z,0.00
2023-04-10T01:30:18.008Z,0.00
2023-04-10T01:31:18.022Z,0.00
2023-04-10T01:32:18.005Z,0.00
2023-04-10T01:33:17.953Z,0.00
2023-04-10T01:34:17.957Z,0.00
2023-04-10T01:35:17.929Z,0.00
2023-04-10T01:36:17.900Z,0.00
2023-04-10T01:37:17.886Z,0.00
2023-04-10T01:38:17.862Z,0.00
2023-04-10T01:39:17.848Z,0.00
2023-04-10T01:40:17.842Z,0.00
2023-04-10T01:41:17.813Z,0.00
2023-04-10T01:42:17.792Z,0.00
2023-04-10T01:43:17.775Z,0.00
2023-04-10T01:44:17.758Z,0.00
2023-04-10T01:45:17.744Z,0.00
2023-04-10T01:46:17.801Z,0.00
2023-04-10T01:47:17.705Z,0.00
2023-04-10T01:48:17.688Z,0.00
2023-04-10T01:49:17.664Z,0.00
2023-04-10T01:50:17.645Z,0.00
2023-04-10T01:51:17.638Z,0.00
2023-04-10T01:52:17.620Z,0.00
2023-04-10T01:53:17.595Z,0.00
2023-04-10T01:54:17.572Z,0.00
2023-04-10T01:55:17.556Z,0.00
2023-04-10T01:56:17.536Z,0.00
2023-04-10T01:57:17.518Z,0.00
2023-04-10T01:58:17.533Z,0.00
2023-04-10T01:59:17.488Z,0.00
2023-04-10T02:00:17.516Z,0.00
2023-04-10T02:01:28.454Z,0.00
2023-04-10T02:02:17.554Z,0.00
2023-04-10T02:03:17.732Z,0.00
2023-04-10T02:04:17.514Z,0.00
2023-04-10T02:05:17.375Z,0.00
2023-04-10T02:06:17.355Z,0.00
2023-04-10T02:07:17.338Z,0.00
2023-04-10T02:08:17.316Z,0.00
2023-04-10T02:09:17.299Z,0.00
2023-04-10T02:10:17.279Z,0.00
2023-04-10T02:11:17.268Z,0.00
2023-04-10T02:12:17.265Z,0.00
2023-04-10T02:13:17.224Z,0.00
2023-04-10T02:14:17.203Z,0.00
2023-04-10T02:15:17.190Z,0.00
2023-04-10T02:16:17.204Z,0.00
2023-04-10T02:17:17.159Z,0.00
2023-04-10T02:18:17.136Z,0.00
2023-04-10T02:19:17.112Z,0.00
2023-04-10T02:20:17.094Z,0.00
2023-04-10T02:21:17.076Z,0.00
2023-04-10T02:22:17.063Z,0.00
2023-04-10T02:23:17.046Z,0.00
2023-04-10T02:24:17.021Z,0.00
2023-04-10T02:25:17.000Z,0.00
2023-04-10T02:26:16.987Z,0.00
2023-04-10T02:27:16.963Z,0.00
2023-04-10T02:28:16.946Z,0.00
2023-04-10T02:29:16.924Z,0.00
2023-04-10T02:30:16.907Z,0.00
2023-04-10T02:31:16.949Z,0.00
2023-04-10T02:32:16.870Z,0.00
2023-04-10T02:33:16.856Z,0.00
2023-04-10T02:34:16.841Z,0.00
2023-04-10T02:35:16.811Z,0.00
2023-04-10T02:36:16.840Z,0.00
2023-04-10T02:37:16.773Z,0.00
2023-04-10T02:38:17.421Z,0.00
2023-04-10T02:39:16.739Z,0.00
2023-04-10T02:40:16.735Z,0.00
2023-04-10T02:41:16.699Z,0.00
2023-04-10T02:42:16.685Z,0.00
2023-04-10T02:43:16.663Z,0.00
2023-04-10T02:44:16.650Z,0.00
2023-04-10T02:45:16.631Z,0.00
2023-04-10T02:46:16.628Z,0.00
2023-04-10T02:47:16.671Z,0.00
2023-04-10T02:48:16.568Z,0.00
2023-04-10T02:49:16.575Z,0.00
2023-04-10T02:50:16.534Z,0.00
2023-04-10T02:51:16.515Z,0.00
2023-04-10T02:52:16.516Z,0.00
2023-04-10T02:53:16.487Z,0.00
2023-04-10T02:54:16.470Z,0.00
2023-04-10T02:55:16.446Z,0.00
2023-04-10T02:56:16.426Z,0.00
2023-04-10T02:57:16.416Z,0.00
2023-04-10T02:58:16.388Z,0.00
2023-04-10T02:59:16.365Z,0.00
2023-04-10T03:00:16.354Z,0.00
2023-04-10T03:01:16.338Z,0.00
2023-04-10T03:02:16.369Z,0.00
2023-04-10T03:03:16.453Z,0.00
2023-04-10T03:04:16.343Z,0.00
2023-04-10T03:05:16.267Z,0.00
2023-04-10T03:06:16.243Z,0.00
2023-04-10T03:07:16.214Z,0.00
2023-04-10T03:08:16.199Z,0.00
2023-04-10T03:09:16.176Z,0.00
2023-04-10T03:10:16.163Z,0.00
2023-04-10T03:11:16.143Z,0.00
2023-04-10T03:12:16.125Z,0.00
2023-04-10T03:13:16.105Z,0.00
2023-04-10T03:14:16.090Z,0.00
2023-04-10T03:15:16.094Z,0.00
2023-04-10T03:16:16.075Z,0.00
2023-04-10T03:17:16.027Z,0.00
2023-04-10T03:18:16.050Z,0.00
2023-04-10T03:19:15.988Z,0.00
2023-04-10T03:20:15.982Z,0.00
2023-04-10T03:21:15.957Z,0.00
2023-04-10T03:22:15.934Z,0.00
2023-04-10T03:23:15.969Z,0.00
2023-04-10T03:24:16.401Z,0.00
2023-04-10T03:25:15.880Z,0.00
2023-04-10T03:26:15.860Z,0.00
2023-04-10T03:27:15.849Z,0.00
2023-04-10T03:28:15.831Z,0.00
2023-04-10T03:29:15.811Z,0.00
2023-04-10T03:30:15.785Z,0.00
2023-04-10T03:31:15.832Z,0.00
2023-04-10T03:32:15.746Z,0.00
2023-04-10T03:33:15.744Z,0.00
2023-04-10T03:34:15.729Z,0.00
2023-04-10T03:35:15.693Z,0.00
2023-04-10T03:36:15.695Z,0.00
2023-04-10T03:37:15.668Z,0.00
2023-04-10T03:38:15.634Z,0.00
2023-04-10T03:39:15.620Z,0.00
2023-04-10T03:40:15.602Z,0.00
2023-04-10T03:41:15.581Z,0.00
2023-04-10T03:42:15.567Z,0.00
2023-04-10T03:43:15.540Z,0.00
2023-04-10T03:44:15.533Z,0.00
2023-04-10T03:45:15.512Z,0.00
2023-04-10T03:46:15.529Z,0.00
2023-04-10T03:47:15.530Z,0.00
2023-04-10T03:48:15.452Z,0.00
2023-04-10T03:49:15.436Z,0.00
2023-04-10T03:50:15.437Z,0.00
2023-04-10T03:51:15.392Z,0.00
2023-04-10T03:52:15.379Z,0.00
2023-04-10T03:53:15.359Z,0.00
2023-04-10T03:54:15.334Z,0.00
2023-04-10T03:55:15.317Z,0.00
2023-04-10T03:56:15.305Z,0.00
2023-04-10T03:57:15.280Z,0.00
2023-04-10T03:58:15.278Z,0.00
2023-04-10T03:59:15.254Z,0.00
2023-04-10T04:00:15.231Z,0.00
2023-04-10T04:01:15.212Z,0.00
2023-04-10T04:02:15.248Z,0.00
2023-04-10T04:03:15.356Z,0.00
2023-04-10T04:04:15.228Z,0.00
2023-04-10T04:05:15.135Z,0.00
2023-04-10T04:06:15.114Z,0.00
2023-04-10T04:07:15.093Z,0.00
2023-04-10T04:08:15.075Z,0.00
2023-04-10T04:09:15.061Z,0.00
2023-04-10T04:10:15.034Z,0.00
2023-04-10T04:11:15.017Z,0.00
2023-04-10T04:12:15.000Z,0.00
2023-04-10T04:13:14.980Z,0.00
2023-04-10T04:14:14.962Z,0.00
2023-04-10T04:15:14.947Z,0.00
2023-04-10T04:16:14.960Z,0.00
2023-04-10T04:17:14.910Z,0.00
2023-04-10T04:18:14.889Z,0.00
2023-04-10T04:19:14.895Z,0.00
2023-04-10T04:20:14.849Z,0.00
2023-04-10T04:21:14.833Z,0.00
2023-04-10T04:22:14.815Z,0.00
2023-04-10T04:23:14.796Z,0.00
2023-04-10T04:24:14.775Z,0.00
2023-04-10T04:25:14.764Z,0.00
2023-04-10T04:26:14.739Z,0.00
2023-04-10T04:27:14.717Z,0.00
2023-04-10T04:28:14.703Z,0.00
2023-04-10T04:29:14.685Z,0.00
2023-04-10T04:30:14.671Z,0.00
2023-04-10T04:31:14.657Z,0.00
2023-04-10T04:32:14.794Z,0.00
2023-04-10T04:33:14.619Z,0.00
2023-04-10T04:34:14.599Z,0.00
2023-04-10T04:35:14.621Z,0.00
2023-04-10T04:36:14.629Z,0.00
2023-04-10T04:37:14.545Z,0.00
2023-04-10T04:38:14.523Z,0.00
2023-04-10T04:39:14.523Z,0.00
2023-04-10T04:40:14.482Z,0.00
2023-04-10T04:41:14.464Z,0.00
2023-04-10T04:42:14.442Z,0.00
2023-04-10T04:43:14.428Z,0.00
2023-04-10T04:44:14.409Z,0.00
2023-04-10T04:45:14.397Z,0.00
2023-04-10T04:46:14.397Z,0.00
2023-04-10T04:47:14.355Z,0.00
2023-04-10T04:48:14.334Z,0.00
2023-04-10T04:49:14.310Z,0.00
2023-04-10T04:50:14.298Z,0.00
2023-04-10T04:51:14.282Z,0.00
2023-04-10T04:52:14.260Z,0.00
2023-04-10T04:53:14.242Z,0.00
2023-04-10T04:54:14.220Z,5.63
2023-04-10T04:55:14.206Z,5.63
2023-04-10T04:56:14.202Z,5.63
2023-04-10T04:57:14.177Z,5.63
2023-04-10T04:58:14.144Z,5.63
2023-04-10T04:59:14.128Z,5.63
2023-04-10T05:00:14.110Z,5.63
2023-04-10T05:01:14.134Z,5.63
2023-04-10T05:02:14.217Z,5.63
2023-04-10T05:03:14.215Z,5.63
2023-04-10T05:04:14.243Z,11.25
2023-04-10T05:05:14.014Z,11.25
2023-04-10T05:06:14.002Z,11.25
2023-04-10T05:07:13.977Z,11.25
2023-04-10T05:08:13.961Z,11.25
2023-04-10T05:09:13.943Z,11.25
2023-04-10T05:10:13.921Z,11.25
2023-04-10T05:11:13.906Z,11.25
2023-04-10T05:12:13.881Z,11.25
2023-04-10T05:13:13.861Z,11.25
2023-04-10T05:14:13.844Z,11.25
2023-04-10T05:15:13.853Z,16.88
2023-04-10T05:16:13.841Z,16.88
2023-04-10T05:17:13.796Z,16.88
2023-04-10T05:18:13.913Z,16.88
2023-04-10T05:19:13.752Z,16.88
2023-04-10T05:20:13.735Z,16.88
2023-04-10T05:21:13.721Z,16.88
2023-04-10T05:22:13.695Z,16.88
2023-04-10T05:23:13.676Z,16.88
2023-04-10T05:24:13.662Z,22.50
2023-04-10T05:25:14.643Z,22.50
2023-04-10T05:26:13.625Z,22.50
2023-04-10T05:27:13.609Z,22.50
2023-04-10T05:28:13.592Z,22.50
2023-04-10T05:29:13.574Z,22.50
2023-04-10T05:30:13.560Z,22.50
2023-04-10T05:31:13.577Z,22.50
2023-04-10T05:32:13.519Z,22.50
2023-04-10T05:33:13.505Z,28.13
2023-04-10T05:34:13.487Z,28.13
2023-04-10T05:35:13.464Z,28.13
2023-04-10T05:36:13.507Z,28.13
2023-04-10T05:37:13.439Z,28.13
2023-04-10T05:38:13.410Z,28.13
2023-04-10T05:39:13.402Z,28.13
2023-04-10T05:40:13.386Z,33.75
2023-04-10T05:41:13.361Z,33.75
2023-04-10T05:42:13.349Z,33.75
2023-04-10T05:43:13.326Z,33.75
2023-04-10T05:44:13.318Z,33.75
2023-04-10T05:45:13.290Z,33.75
2023-04-10T05:46:13.330Z,39.38
2023-04-10T05:47:13.256Z,39.38
2023-04-10T05:48:13.246Z,39.38
2023-04-10T05:49:13.245Z,39.38
2023-04-10T05:50:13.210Z,39.38
2023-04-10T05:51:13.191Z,39.38
2023-04-10T05:52:13.173Z,45.00
2023-04-10T05:53:13.165Z,45.00
2023-04-10T05:54:13.141Z,45.00
2023-04-10T05:55:13.132Z,45.00
2023-04-10T05:56:13.137Z,45.00
2023-04-10T05:57:13.085Z,45.00
2023-04-10T05:58:13.067Z,50.63
2023-04-10T05:59:13.053Z,50.63
2023-04-10T06:00:13.062Z,50.63
2023-04-10T06:01:13.021Z,50.63
2023-04-10T06:02:13.021Z,50.63
2023-04-10T06:03:13.046Z,50.63
2023-04-10T06:04:13.159Z,45.00
2023-04-10T06:05:12.990Z,45.00
2023-04-10T06:06:12.945Z,45.00
2023-04-10T06:07:12.922Z,45.00
2023-04-10T06:08:12.921Z,45.00
2023-04-10T06:09:12.899Z,45.00
2023-04-10T06:10:12.873Z,45.00
2023-04-10T06:11:12.856Z,50.63
2023-04-10T06:12:12.843Z,50.63
2023-04-10T06:13:12.817Z,50.63
2023-04-10T06:14:12.808Z,56.25
2023-04-10T06:15:12.798Z,56.25
2023-04-10T06:16:12.813Z,56.25
2023-04-10T06:17:12.760Z,56.25
2023-04-10T06:18:12.734Z,56.25
2023-04-10T06:19:12.732Z,56.25
2023-04-10T06:20:12.718Z,56.25
2023-04-10T06:21:12.693Z,56.25
2023-04-10T06:22:12.663Z,56.25
2023-04-10T06:23:12.684Z,56.25
2023-04-10T06:24:12.991Z,61.88
2023-04-10T06:25:12.619Z,56.25
2023-04-10T06:26:12.606Z,61.88
2023-04-10T06:27:12.588Z,61.88
2023-04-10T06:28:12.574Z,67.50
2023-04-10T06:29:12.556Z,67.50
2023-04-10T06:30:12.540Z,73.13
2023-04-10T06:31:12.581Z,73.13
2023-04-10T06:32:12.518Z,73.13
2023-04-10T06:33:12.509Z,73.13
2023-04-10T06:34:12.479Z,78.75
2023-04-10T06:35:12.457Z,78.75
2023-04-10T06:36:12.501Z,90.00
2023-04-10T06:37:12.427Z,90.00
2023-04-10T06:38:12.439Z,95.63
2023-04-10T06:39:12.409Z,101.25
2023-04-10T06:40:12.382Z,106.88
2023-04-10T06:41:12.386Z,106.88
2023-04-10T06:42:12.358Z,106.88
2023-04-10T06:43:13.023Z,112.50
2023-04-10T06:44:12.333Z,106.88
2023-04-10T06:45:12.319Z,106.88
2023-04-10T06:46:12.333Z,101.25
2023-04-10T06:47:12.335Z,95.63
2023-04-10T06:48:12.254Z,90.00
2023-04-10T06:49:12.240Z,101.25
2023-04-10T06:50:12.229Z,101.25
2023-04-10T06:51:12.209Z,112.50
2023-04-10T06:52:12.190Z,118.13
2023-04-10T06:53:12.177Z,112.50
2023-04-10T06:54:12.158Z,118.13
2023-04-10T06:55:12.174Z,118.13
2023-04-10T06:56:12.144Z,118.13
2023-04-10T06:57:12.116Z,123.75
2023-04-10T06:58:12.108Z,123.75
2023-04-10T06:59:12.093Z,123.75
2023-04-10T07:00:12.187Z,129.38
2023-04-10T07:01:12.109Z,129.38
2023-04-10T07:02:12.096Z,135.00
2023-04-10T07:03:12.046Z,140.63
2023-04-10T07:04:12.055Z,140.63
2023-04-10T07:05:11.998Z,140.63
2023-04-10T07:06:11.995Z,140.63
2023-04-10T07:07:11.968Z,146.25
2023-04-10T07:08:11.956Z,146.25
2023-04-10T07:09:11.945Z,146.25
2023-04-10T07:10:11.945Z,151.88
2023-04-10T07:11:11.917Z,157.50
2023-04-10T07:12:11.889Z,163.13
2023-04-10T07:13:11.987Z,174.38
2023-04-10T07:14:11.879Z,180.00
2023-04-10T07:15:11.846Z,185.63
2023-04-10T07:16:11.844Z,185.63
2023-04-10T07:17:11.815Z,196.88
2023-04-10T07:18:11.796Z,163.13
2023-04-10T07:19:11.790Z,208.13
2023-04-10T07:20:11.790Z,213.75
2023-04-10T07:21:11.765Z,219.38
2023-04-10T07:22:11.744Z,225.00
2023-04-10T07:23:11.738Z,225.00
2023-04-10T07:24:11.718Z,230.63
2023-04-10T07:25:11.756Z,236.25
2023-04-10T07:26:11.699Z,241.88
2023-04-10T07:27:11.727Z,247.50
2023-04-10T07:28:11.671Z,253.13
2023-04-10T07:29:11.649Z,258.75
2023-04-10T07:30:13.495Z,264.38
2023-04-10T07:31:11.634Z,275.63
2023-04-10T07:32:11.737Z,275.63
2023-04-10T07:33:11.824Z,275.63
2023-04-10T07:34:11.607Z,281.25
2023-04-10T07:35:11.569Z,247.50
2023-04-10T07:36:11.623Z,303.75
2023-04-10T07:37:11.553Z,303.75
2023-04-10T07:38:11.541Z,264.38
2023-04-10T07:39:11.518Z,360.00
2023-04-10T07:40:11.518Z,433.13
2023-04-10T07:41:11.496Z,421.88
2023-04-10T07:42:11.485Z,410.63
2023-04-10T07:43:11.616Z,416.25
2023-04-10T07:44:11.467Z,427.50
2023-04-10T07:45:11.442Z,405.00
2023-04-10T07:46:11.475Z,405.00
2023-04-10T07:47:11.432Z,399.38
2023-04-10T07:48:11.406Z,405.00
2023-04-10T07:49:11.394Z,416.25
2023-04-10T07:50:11.406Z,360.00
2023-04-10T07:51:11.376Z,405.00
2023-04-10T07:52:11.365Z,292.50
2023-04-10T07:53:11.355Z,393.75
2023-04-10T07:54:11.376Z,416.25
2023-04-10T07:55:11.334Z,371.25
2023-04-10T07:56:11.329Z,337.50
2023-04-10T07:57:11.318Z,416.25
2023-04-10T07:58:11.309Z,421.88
2023-04-10T07:59:11.304Z,421.88
2023-04-10T08:00:11.303Z,416.25
2023-04-10T08:01:11.279Z,455.63
2023-04-10T08:02:11.343Z,421.88
2023-04-10T08:03:11.454Z,405.00
2023-04-10T08:04:11.465Z,399.38
2023-04-10T08:05:11.373Z,382.50
2023-04-10T08:06:11.263Z,371.25
2023-04-10T08:07:11.234Z,354.38
2023-04-10T08:08:11.222Z,371.25
2023-04-10T08:09:11.216Z,393.75
2023-04-10T08:10:11.210Z,427.50
2023-04-10T08:11:11.204Z,433.13
2023-04-10T08:12:11.194Z,416.25
2023-04-10T08:13:11.187Z,433.13
2023-04-10T08:14:11.178Z,388.13
2023-04-10T08:15:11.177Z,466.88
2023-04-10T08:16:11.198Z,455.63
2023-04-10T08:17:11.228Z,461.25
2023-04-10T08:18:11.158Z,433.13
2023-04-10T08:19:11.144Z,472.50
2023-04-10T08:20:11.159Z,450.00
2023-04-10T08:21:11.137Z,478.13
2023-04-10T08:22:11.133Z,478.13
2023-04-10T08:24:11.125Z,466.88
2023-04-10T08:25:11.136Z,534.38
2023-04-10T08:26:11.110Z,506.25
2023-04-10T08:27:11.096Z,483.75
2023-04-10T08:28:11.094Z,500.63
2023-04-10T08:29:11.087Z,523.13
2023-04-10T08:30:11.101Z,517.50
2023-04-10T08:31:11.130Z,551.25
2023-04-10T08:32:11.085Z,545.63
2023-04-10T08:33:11.085Z,562.50
2023-04-10T08:34:11.066Z,551.25
2023-04-10T08:35:11.070Z,545.63
2023-04-10T08:36:11.105Z,495.00
2023-04-10T08:37:11.977Z,506.25
2023-04-10T08:38:14.091Z,534.38
2023-04-10T08:39:11.042Z,517.50
2023-04-10T08:40:11.044Z,540.00
2023-04-10T08:41:11.034Z,528.75
2023-04-10T08:42:11.055Z,534.38
2023-04-10T08:43:11.034Z,556.88
2023-04-10T08:44:11.025Z,540.00
2023-04-10T08:45:11.021Z,556.88
2023-04-10T08:46:11.081Z,562.50
2023-04-10T08:47:11.021Z,562.50
2023-04-10T08:48:11.045Z,568.13
2023-04-10T08:49:11.010Z,568.13
2023-04-10T08:50:11.007Z,562.50
2023-04-10T08:51:15.759Z,511.88
2023-04-10T08:52:11.006Z,528.75
2023-04-10T08:53:10.991Z,556.88
2023-04-10T08:54:10.987Z,579.38
2023-04-10T08:55:10.988Z,551.25
2023-04-10T08:56:10.981Z,562.50
2023-04-10T08:57:11.166Z,545.63
2023-04-10T08:58:10.982Z,556.88
2023-04-10T08:59:11.251Z,545.63
2023-04-10T09:01:10.973Z,534.38
2023-04-10T09:02:11.041Z,585.00
2023-04-10T09:03:11.131Z,573.75
2023-04-10T09:04:11.001Z,568.13
2023-04-10T09:05:10.954Z,573.75
2023-04-10T09:06:10.950Z,601.88
2023-04-10T09:07:10.962Z,579.38
2023-04-10T09:08:10.964Z,613.13
2023-04-10T09:09:10.946Z,618.75
2023-04-10T09:10:10.968Z,646.88
2023-04-10T09:11:10.960Z,641.25
2023-04-10T09:12:10.941Z,601.88
2023-04-10T09:13:10.939Z,590.63
2023-04-10T09:14:10.960Z,669.38
2023-04-10T09:15:10.945Z,675.00
2023-04-10T09:16:10.962Z,652.50
2023-04-10T09:17:10.928Z,663.75
2023-04-10T09:18:11.082Z,680.63
2023-04-10T09:19:10.921Z,663.75
2023-04-10T09:20:10.921Z,731.25
2023-04-10T09:21:10.920Z,691.88
2023-04-10T09:22:10.923Z,714.38
2023-04-10T09:23:10.911Z,725.63
2023-04-10T09:24:10.913Z,765.00
2023-04-10T09:25:10.905Z,798.75
2023-04-10T09:26:10.904Z,900.00
2023-04-10T09:27:10.913Z,894.38
2023-04-10T09:28:10.905Z,939.38
2023-04-10T09:29:10.900Z,956.25
2023-04-10T09:30:10.907Z,956.25
2023-04-10T09:31:10.913Z,888.75
2023-04-10T09:32:10.895Z,888.75
2023-04-10T09:33:10.892Z,995.63
2023-04-10T09:34:10.912Z,1018.13
2023-04-10T09:35:10.919Z,950.63
2023-04-10T09:36:10.929Z,1018.13
2023-04-10T09:37:10.905Z,1051.88
2023-04-10T09:38:10.904Z,1080.00
2023-04-10T09:39:10.886Z,1063.13
2023-04-10T09:40:10.885Z,1029.38
2023-04-10T09:41:10.884Z,1057.50
2023-04-10T09:42:10.885Z,1023.75
2023-04-10T09:43:10.890Z,1035.00
2023-04-10T09:44:10.883Z,1119.38
2023-04-10T09:45:10.882Z,1051.88
2023-04-10T09:46:10.896Z,1063.13
2023-04-10T09:47:10.886Z,967.50
2023-04-10T09:48:10.885Z,1040.63
2023-04-10T09:49:10.882Z,950.63
2023-04-10T09:50:10.880Z,950.63
2023-04-10T09:51:10.889Z,905.63
2023-04-10T09:52:10.884Z,950.63
2023-04-10T09:53:10.891Z,888.75
2023-04-10T09:54:10.880Z,945.00
2023-04-10T09:55:10.878Z,916.88
2023-04-10T09:56:10.879Z,905.63
2023-04-10T09:57:10.884Z,928.13
2023-04-10T09:58:10.884Z,928.13
2023-04-10T09:59:10.879Z,945.00
2023-04-10T10:00:10.877Z,933.75
2023-04-10T10:01:10.878Z,911.25
2023-04-10T10:02:10.927Z,843.75
2023-04-10T10:03:11.190Z,770.63
2023-04-10T10:04:10.893Z,708.75
2023-04-10T10:05:10.975Z,607.50
2023-04-10T10:06:10.880Z,433.13
2023-04-10T10:07:10.936Z,410.63
2023-04-10T10:08:10.877Z,466.88
2023-04-10T10:09:10.889Z,348.75
2023-04-10T10:10:10.878Z,326.25
2023-04-10T10:11:10.879Z,399.38
2023-04-10T10:12:10.880Z,517.50
2023-04-10T10:13:10.911Z,568.13
2023-04-10T10:14:10.879Z,675.00
2023-04-10T10:15:10.872Z,720.00
2023-04-10T10:16:10.900Z,731.25
2023-04-10T10:17:10.881Z,753.75
2023-04-10T10:18:10.863Z,725.63
2023-04-10T10:19:10.869Z,798.75
2023-04-10T10:20:10.876Z,804.38
2023-04-10T10:21:10.892Z,686.25
2023-04-10T10:22:10.872Z,731.25
2023-04-10T10:23:10.860Z,765.00
2023-04-10T10:24:10.857Z,748.13
2023-04-10T10:25:10.859Z,810.00
2023-04-10T10:26:10.869Z,736.88
2023-04-10T10:27:10.850Z,663.75
2023-04-10T10:28:10.848Z,686.25
2023-04-10T10:29:10.880Z,669.38
2023-04-10T10:30:25.302Z,646.88
2023-04-10T10:31:10.923Z,691.88
2023-04-10T10:32:10.845Z,748.13
2023-04-10T10:33:10.841Z,725.63
2023-04-10T10:34:10.839Z,810.00
2023-04-10T10:35:10.835Z,776.25
2023-04-10T10:36:10.835Z,753.75
2023-04-10T10:37:10.830Z,748.13
2023-04-10T10:38:10.829Z,849.38
2023-04-10T10:39:10.830Z,922.50
2023-04-10T10:40:10.840Z,877.50
2023-04-10T10:41:10.834Z,961.88
2023-04-10T10:42:10.838Z,1012.50
2023-04-10T10:43:10.853Z,1136.25
2023-04-10T10:44:10.822Z,1164.38
2023-04-10T10:45:10.816Z,1108.13
2023-04-10T10:46:10.861Z,1175.63
2023-04-10T10:47:10.823Z,1248.75
2023-04-10T10:48:10.813Z,1237.50
2023-04-10T10:49:10.813Z,1310.63
2023-04-10T10:50:10.815Z,1344.38
2023-04-10T10:51:10.815Z,1344.38
2023-04-10T10:52:10.815Z,1350.00
2023-04-10T10:53:10.817Z,1316.25
2023-04-10T10:54:10.812Z,1305.00
2023-04-10T10:55:10.815Z,1321.88
2023-04-10T10:56:10.814Z,1276.88
2023-04-10T10:57:10.813Z,1271.25
2023-04-10T10:58:10.823Z,1276.88
2023-04-10T10:59:10.810Z,1265.63
2023-04-10T11:00:10.814Z,1147.50
2023-04-10T11:01:10.994Z,1226.25
2023-04-10T11:02:10.886Z,1175.63
2023-04-10T11:03:11.018Z,1170.00
2023-04-10T11:04:10.876Z,1164.38
2023-04-10T11:05:10.816Z,1198.13
2023-04-10T11:06:10.824Z,1181.25
2023-04-10T11:07:11.061Z,1108.13
2023-04-10T11:08:10.852Z,1130.63
2023-04-10T11:09:10.825Z,1153.13
2023-04-10T11:10:10.829Z,1192.50
2023-04-10T11:11:10.862Z,1248.75
2023-04-10T11:12:10.835Z,1198.13
2023-04-10T11:13:10.834Z,1203.75
2023-04-10T11:14:10.835Z,1220.63
2023-04-10T11:15:10.849Z,1248.75
2023-04-10T11:16:10.915Z,1271.25
2023-04-10T11:17:10.846Z,1288.13
2023-04-10T11:18:10.863Z,1305.00
2023-04-10T11:19:15.428Z,1305.00
2023-04-10T11:20:10.859Z,478.13
2023-04-10T11:21:10.929Z,1299.38
2023-04-10T11:22:10.854Z,894.38
2023-04-10T11:23:10.862Z,1158.75
2023-04-10T11:24:10.859Z,1254.38
2023-04-10T11:25:10.857Z,1254.38
2023-04-10T11:26:10.865Z,1226.25
2023-04-10T11:27:10.864Z,1226.25
2023-04-10T11:28:10.877Z,1220.63
2023-04-10T11:29:10.869Z,1220.63
2023-04-10T11:30:10.869Z,1226.25
2023-04-10T11:31:10.871Z,1203.75
2023-04-10T11:32:10.899Z,1164.38
2023-04-10T11:33:10.904Z,1130.63
2023-04-10T11:34:10.881Z,905.63
2023-04-10T11:35:10.886Z,1018.13
2023-04-10T11:36:10.884Z,1063.13
2023-04-10T11:37:10.885Z,1147.50
2023-04-10T11:38:10.888Z,1080.00
2023-04-10T11:39:10.893Z,1006.88
2023-04-10T11:40:10.894Z,855.00
2023-04-10T11:41:10.893Z,753.75
2023-04-10T11:42:10.897Z,686.25
2023-04-10T11:43:10.910Z,601.88
2023-04-10T11:44:10.906Z,596.25
2023-04-10T11:45:10.904Z,590.63
2023-04-10T11:46:10.938Z,573.75
2023-04-10T11:47:10.912Z,551.25
2023-04-10T11:48:10.932Z,551.25
2023-04-10T11:49:10.908Z,534.38
2023-04-10T11:50:10.928Z,545.63
2023-04-10T11:51:10.925Z,528.75
2023-04-10T11:52:10.915Z,540.00
2023-04-10T11:53:10.913Z,523.13
2023-04-10T11:54:10.921Z,534.38
2023-04-10T11:55:10.914Z,551.25
2023-04-10T11:56:10.937Z,556.88
2023-04-10T11:57:10.920Z,562.50
2023-04-10T11:58:10.926Z,523.13
2023-04-10T11:59:11.228Z,495.00
2023-04-10T12:00:10.918Z,455.63
2023-04-10T12:01:10.915Z,405.00
2023-04-10T12:02:11.006Z,416.25
2023-04-10T12:03:11.089Z,393.75
2023-04-10T12:04:11.078Z,382.50
2023-04-10T12:05:10.937Z,365.63
2023-04-10T12:06:10.955Z,360.00
2023-04-10T12:07:10.912Z,326.25
2023-04-10T12:08:10.907Z,286.88
2023-04-10T12:09:10.910Z,270.00
2023-04-10T12:10:10.906Z,275.63
2023-04-10T12:11:10.921Z,286.88
2023-04-10T12:12:10.906Z,292.50
2023-04-10T12:13:10.916Z,275.63
2023-04-10T12:14:10.893Z,331.88
2023-04-10T12:15:10.893Z,331.88
2023-04-10T12:16:10.985Z,331.88
2023-04-10T12:17:10.887Z,320.63
2023-04-10T12:18:10.884Z,320.63
2023-04-10T12:19:10.898Z,286.88
2023-04-10T12:20:10.880Z,258.75
2023-04-10T12:21:10.872Z,247.50
2023-04-10T12:22:10.872Z,236.25
2023-04-10T12:23:10.863Z,241.88
2023-04-10T12:24:10.860Z,230.63
2023-04-10T12:25:10.856Z,236.25
2023-04-10T12:26:10.866Z,236.25
2023-04-10T12:27:10.843Z,230.63
2023-04-10T12:28:10.848Z,219.38
2023-04-10T12:29:10.837Z,219.38
2023-04-10T12:30:10.833Z,213.75
2023-04-10T12:31:10.880Z,208.13
2023-04-10T12:32:10.823Z,208.13
2023-04-10T12:33:10.815Z,208.13
2023-04-10T12:34:11.384Z,196.88
2023-04-10T12:35:10.804Z,196.88
2023-04-10T12:36:10.802Z,196.88
2023-04-10T12:37:10.794Z,196.88
2023-04-10T12:38:10.789Z,202.50
2023-04-10T12:39:10.789Z,208.13
2023-04-10T12:40:10.796Z,208.13
2023-04-10T12:41:10.768Z,208.13
2023-04-10T12:42:10.773Z,219.38
2023-04-10T12:43:10.762Z,219.38
2023-04-10T12:44:10.763Z,219.38
2023-04-10T12:45:10.737Z,213.75
2023-04-10T12:46:10.787Z,230.63
2023-04-10T12:47:10.729Z,230.63
2023-04-10T12:48:10.759Z,236.25
2023-04-10T12:49:10.714Z,241.88
2023-04-10T12:50:10.903Z,236.25